createdAt,value
2019-05-15T00:00:55.794Z,78.53
2019-05-15T00:01:55.796Z,78.53
2019-05-15T00:02:55.820Z,79.66
2019-05-15T00:03:58.318Z,79.19
2019-05-15T00:04:55.840Z,79.19
2019-05-15T00:05:55.854Z,79.38
2019-05-15T00:06:58.112Z,79.38
2019-05-15T00:07:55.882Z,79.19
2019-05-15T00:08:55.898Z,79.38
2019-05-15T00:09:55.910Z,79.57
2019-05-15T00:10:55.926Z,79.38
2019-05-15T00:11:55.940Z,79.76
2019-05-15T00:12:57.962Z,79.66
2019-05-15T00:13:55.967Z,79.66
2019-05-15T00:14:57.975Z,79.76
2019-05-15T00:15:55.994Z,79.76
2019-05-15T00:16:58.542Z,80.04
2019-05-15T00:17:57.783Z,79.85
2019-05-15T00:18:56.038Z,79.85
2019-05-15T00:19:58.087Z,79.85
2019-05-15T00:20:56.068Z,79.95
2019-05-15T00:21:58.410Z,79.95
2019-05-15T00:22:56.095Z,79.95
2019-05-15T00:23:58.491Z,79.85
2019-05-15T00:24:58.035Z,79.85
2019-05-15T00:25:58.268Z,79.76
2019-05-15T00:26:56.151Z,79.76
2019-05-15T00:27:58.145Z,79.85
2019-05-15T00:29:11.137Z,80.33
2019-05-15T00:29:57.866Z,80.24
2019-05-15T00:30:58.082Z,80.52
2019-05-15T00:31:58.758Z,80.62
2019-05-15T00:32:56.236Z,80.80
2019-05-15T00:33:56.276Z,80.52
2019-05-15T00:34:58.149Z,80.80
2019-05-15T00:35:56.334Z,81.27
2019-05-15T00:36:58.295Z,81.09
2019-05-15T00:37:58.429Z,80.90
2019-05-15T00:38:56.408Z,80.90
2019-05-15T00:39:56.399Z,80.71
2019-05-15T00:40:58.386Z,80.80
2019-05-15T00:41:58.862Z,81.09
2019-05-15T00:42:57.886Z,80.99
2019-05-15T00:43:58.349Z,81.27
2019-05-15T00:44:58.334Z,81.09
2019-05-15T00:45:58.442Z,80.90
2019-05-15T00:46:58.071Z,80.99
2019-05-15T00:47:57.927Z,81.18
2019-05-15T00:48:59.023Z,80.90
2019-05-15T00:49:58.093Z,81.75
2019-05-15T00:50:58.873Z,81.47
2019-05-15T00:51:59.002Z,81.94
2019-05-15T00:52:56.518Z,81.85
2019-05-15T00:53:58.778Z,81.94
2019-05-15T00:54:58.823Z,81.85
2019-05-15T00:55:58.065Z,81.75
2019-05-15T00:56:57.919Z,81.94
2019-05-15T00:57:58.872Z,81.94
2019-05-15T00:58:58.689Z,82.04
2019-05-15T00:59:58.850Z,81.66
2019-05-15T01:00:59.033Z,82.13
2019-05-15T01:01:56.642Z,82.60
2019-05-15T01:02:57.851Z,82.70
2019-05-15T01:03:58.442Z,82.42
2019-05-15T01:04:58.438Z,82.70
2019-05-15T01:05:58.484Z,83.17
2019-05-15T01:06:58.342Z,82.60
2019-05-15T01:07:58.538Z,82.51
2019-05-15T01:08:58.720Z,82.70
2019-05-15T01:09:57.929Z,82.60
2019-05-15T01:10:58.239Z,82.85
2019-05-15T01:11:58.591Z,83.36
2019-05-15T01:12:58.412Z,83.32
2019-05-15T01:13:58.482Z,82.98
2019-05-15T01:14:58.334Z,83.42
2019-05-15T01:15:58.251Z,83.61
2019-05-15T01:16:58.235Z,83.42
2019-05-15T01:17:58.279Z,83.42
2019-05-15T01:18:58.581Z,83.42
2019-05-15T01:19:58.720Z,83.23
2019-05-15T01:20:58.657Z,83.32
2019-05-15T01:21:58.648Z,83.23
2019-05-15T01:22:59.032Z,83.32
2019-05-15T01:23:58.839Z,83.61
2019-05-15T01:24:58.848Z,83.61
2019-05-15T01:25:58.712Z,83.61
2019-05-15T01:26:58.496Z,84.17
2019-05-15T01:27:58.342Z,83.98
2019-05-15T01:28:58.423Z,83.98
2019-05-15T01:29:58.180Z,83.51
2019-05-15T01:30:59.032Z,84.36
2019-05-15T01:31:59.113Z,84.36
2019-05-15T01:32:59.059Z,83.61
2019-05-15T01:33:58.376Z,83.51
2019-05-15T01:34:58.074Z,84.17
2019-05-15T01:35:58.908Z,84.27
2019-05-15T01:36:59.037Z,84.08
2019-05-15T01:37:58.586Z,83.80
2019-05-15T01:38:58.472Z,84.36
2019-05-15T01:39:58.123Z,84.46
2019-05-15T01:40:58.953Z,84.08
2019-05-15T01:41:58.521Z,84.46
2019-05-15T01:42:58.288Z,84.74
2019-05-15T01:43:58.147Z,84.65
2019-05-15T01:44:58.919Z,84.74
2019-05-15T01:45:58.861Z,84.65
2019-05-15T01:46:59.019Z,84.74
2019-05-15T01:47:58.590Z,84.84
2019-05-15T01:48:58.520Z,84.36
2019-05-15T01:49:58.284Z,84.55
2019-05-15T01:50:58.596Z,84.74
2019-05-15T01:51:58.598Z,84.46
2019-05-15T01:52:58.563Z,85.03
2019-05-15T01:53:58.406Z,84.94
2019-05-15T01:54:58.244Z,85.22
2019-05-15T01:55:58.904Z,85.41
2019-05-15T01:56:58.738Z,85.31
2019-05-15T01:57:58.170Z,85.22
2019-05-15T01:58:57.999Z,85.03
2019-05-15T02:00:00.284Z,85.41
2019-05-15T02:00:58.952Z,85.60
2019-05-15T02:01:59.079Z,85.78
2019-05-15T02:02:58.739Z,86.07
2019-05-15T02:03:59.008Z,85.22
2019-05-15T02:04:59.132Z,85.41
2019-05-15T02:05:58.666Z,85.60
2019-05-15T02:06:58.839Z,85.13
2019-05-15T02:07:58.495Z,85.50
2019-05-15T02:08:58.750Z,85.69
2019-05-15T02:09:58.280Z,85.69
2019-05-15T02:10:58.899Z,85.97
2019-05-15T02:11:58.144Z,85.88
2019-05-15T02:12:58.782Z,85.78
2019-05-15T02:13:58.648Z,85.78
2019-05-15T02:14:58.735Z,85.97
2019-05-15T02:15:58.919Z,86.07
2019-05-15T02:16:59.125Z,86.35
2019-05-15T02:17:58.826Z,85.97
2019-05-15T02:18:58.275Z,85.97
2019-05-15T02:19:58.752Z,86.07
2019-05-15T02:20:58.712Z,86.35
2019-05-15T02:21:58.001Z,86.26
2019-05-15T02:22:59.083Z,86.74
2019-05-15T02:23:58.788Z,86.45
2019-05-15T02:24:59.163Z,86.64
2019-05-15T02:25:58.873Z,86.74
2019-05-15T02:26:58.832Z,86.64
2019-05-15T02:27:58.663Z,86.64
2019-05-15T02:28:57.838Z,87.12
2019-05-15T02:30:16.029Z,87.40
2019-05-15T02:30:58.735Z,87.49
2019-05-15T02:31:59.297Z,87.35
2019-05-15T02:32:58.964Z,87.07
2019-05-15T02:33:58.953Z,87.21
2019-05-15T02:34:59.046Z,86.79
2019-05-15T02:35:59.450Z,87.26
2019-05-15T02:37:00.188Z,87.35
2019-05-15T02:37:59.797Z,87.35
2019-05-15T02:38:59.729Z,87.26
2019-05-15T02:39:58.950Z,87.16
2019-05-15T02:40:59.323Z,87.35
2019-05-15T02:41:59.520Z,87.16
2019-05-15T02:42:59.193Z,87.73
2019-05-15T02:43:59.217Z,87.45
2019-05-15T02:44:58.681Z,88.49
2019-05-15T02:46:00.556Z,88.02
2019-05-15T02:46:58.815Z,88.30
2019-05-15T02:47:59.680Z,88.30
2019-05-15T02:48:59.223Z,88.40
2019-05-15T02:49:59.332Z,88.40
2019-05-15T02:50:58.844Z,88.59
2019-05-15T02:52:00.197Z,88.40
2019-05-15T02:53:00.535Z,88.68
2019-05-15T02:53:58.691Z,88.78
2019-05-15T02:55:00.009Z,88.87
2019-05-15T02:56:00.060Z,88.68
2019-05-15T02:56:59.054Z,88.96
2019-05-15T02:57:59.068Z,89.06
2019-05-15T02:59:00.030Z,89.15
2019-05-15T02:59:59.412Z,89.63
2019-05-15T03:00:59.373Z,89.53
2019-05-15T03:01:59.396Z,89.44
2019-05-15T03:03:00.162Z,89.72
2019-05-15T03:03:59.648Z,89.63
2019-05-15T03:04:59.578Z,89.63
2019-05-15T03:06:00.119Z,89.82
2019-05-15T03:07:00.255Z,89.53
2019-05-15T03:07:59.415Z,89.53
2019-05-15T03:08:59.625Z,89.82
2019-05-15T03:09:59.897Z,89.72
2019-05-15T03:10:59.251Z,89.44
2019-05-15T03:11:58.682Z,90.10
2019-05-15T03:13:00.110Z,90.20
2019-05-15T03:13:59.277Z,90.77
2019-05-15T03:14:59.862Z,90.95
2019-05-15T03:15:59.954Z,90.95
2019-05-15T03:16:59.661Z,90.48
2019-05-15T03:18:00.428Z,90.29
2019-05-15T03:18:59.824Z,91.05
2019-05-15T03:19:59.050Z,90.39
2019-05-15T03:21:00.389Z,90.29
2019-05-15T03:21:59.901Z,90.39
2019-05-15T03:22:59.707Z,90.20
2019-05-15T03:23:59.435Z,90.48
2019-05-15T03:24:59.214Z,90.58
2019-05-15T03:26:02.992Z,91.33
2019-05-15T03:26:59.292Z,91.05
2019-05-15T03:27:59.529Z,91.05
2019-05-15T03:28:59.046Z,91.14
2019-05-15T03:29:59.368Z,91.24
2019-05-15T03:32:15.329Z,91.05
2019-05-15T03:33:03.943Z,91.52
2019-05-15T03:34:02.639Z,91.86
2019-05-15T03:35:04.097Z,92.00
2019-05-15T03:36:02.833Z,92.00
2019-05-15T03:37:03.341Z,91.67
2019-05-15T03:37:59.855Z,91.62
2019-05-15T03:38:58.864Z,91.71
2019-05-15T03:39:59.636Z,91.71
2019-05-15T03:40:59.627Z,91.52
2019-05-15T03:41:58.926Z,91.71
2019-05-15T03:42:59.337Z,92.38
2019-05-15T03:43:59.599Z,92.19
2019-05-15T03:44:59.663Z,92.19
2019-05-15T03:46:01.533Z,92.19
2019-05-15T03:46:59.642Z,91.90
2019-05-15T03:47:59.513Z,92.00
2019-05-15T03:49:00.459Z,92.00
2019-05-15T03:50:00.079Z,92.00
2019-05-15T03:50:59.701Z,92.09
2019-05-15T03:51:59.061Z,92.19
2019-05-15T03:52:59.031Z,92.28
2019-05-15T03:54:00.327Z,92.47
2019-05-15T03:54:59.006Z,92.19
2019-05-15T03:55:59.146Z,92.19
2019-05-15T03:56:59.014Z,92.00
2019-05-15T03:57:59.259Z,92.09
2019-05-15T03:58:59.680Z,92.00
2019-05-15T03:59:59.767Z,91.90
2019-05-15T04:01:00.254Z,92.09
2019-05-15T04:01:59.949Z,92.00
2019-05-15T04:02:59.254Z,92.28
2019-05-15T04:03:59.812Z,92.28
2019-05-15T04:05:01.661Z,92.19
2019-05-15T04:06:00.524Z,92.28
2019-05-15T04:06:59.787Z,92.57
2019-05-15T04:07:59.801Z,92.19
2019-05-15T04:08:59.179Z,92.28
2019-05-15T04:09:59.177Z,92.00
2019-05-15T04:10:59.613Z,92.09
2019-05-15T04:12:00.055Z,92.28
2019-05-15T04:12:59.981Z,92.19
2019-05-15T04:13:59.540Z,92.28
2019-05-15T04:14:59.766Z,92.19
2019-05-15T04:15:59.473Z,91.90
2019-05-15T04:16:59.527Z,91.62
2019-05-15T04:18:00.266Z,91.81
2019-05-15T04:18:59.523Z,92.00
2019-05-15T04:19:59.313Z,91.43
2019-05-15T04:21:00.174Z,91.24
2019-05-15T04:21:59.992Z,91.24
2019-05-15T04:23:00.384Z,91.33
2019-05-15T04:23:59.366Z,91.00
2019-05-15T04:24:59.460Z,91.09
2019-05-15T04:25:59.394Z,90.72
2019-05-15T04:26:59.877Z,90.91
2019-05-15T04:27:59.426Z,90.62
2019-05-15T04:29:00.090Z,90.72
2019-05-15T04:29:59.449Z,90.72
2019-05-15T04:30:59.778Z,90.43
2019-05-15T04:32:05.392Z,90.05
2019-05-15T04:32:59.636Z,89.48
2019-05-15T04:33:59.509Z,89.86
2019-05-15T04:34:59.670Z,89.11
2019-05-15T04:35:59.532Z,89.29
2019-05-15T04:36:59.548Z,89.01
2019-05-15T04:37:59.865Z,88.82
2019-05-15T04:38:59.580Z,88.92
2019-05-15T04:39:59.898Z,88.63
2019-05-15T04:40:59.604Z,89.01
2019-05-15T04:41:59.617Z,88.54
2019-05-15T04:42:59.634Z,88.68
2019-05-15T04:43:59.837Z,88.77
2019-05-15T04:44:59.788Z,88.20
2019-05-15T04:46:02.976Z,87.92
2019-05-15T04:46:59.767Z,88.77
2019-05-15T04:47:59.701Z,88.87
2019-05-15T04:48:59.823Z,88.77
2019-05-15T04:49:59.742Z,88.29
2019-05-15T04:50:59.744Z,88.58
2019-05-15T04:52:03.394Z,88.29
2019-05-15T04:52:59.774Z,88.10
2019-05-15T04:53:59.795Z,88.48
2019-05-15T04:54:59.998Z,88.58
2019-05-15T04:55:59.959Z,88.58
2019-05-15T04:56:59.848Z,88.48
2019-05-15T04:57:59.847Z,88.01
2019-05-15T04:59:00.225Z,87.82
2019-05-15T04:59:59.872Z,87.63
2019-05-15T05:01:00.270Z,87.63
2019-05-15T05:02:16.374Z,87.92
2019-05-15T05:02:59.944Z,87.35
2019-05-15T05:04:00.000Z,87.35
2019-05-15T05:04:59.994Z,87.45
2019-05-15T05:06:00.001Z,87.45
2019-05-15T05:06:59.999Z,87.49
2019-05-15T05:08:00.054Z,87.54
2019-05-15T05:09:00.074Z,87.49
2019-05-15T05:10:00.051Z,86.91
2019-05-15T05:11:00.091Z,86.82
2019-05-15T05:12:00.074Z,87.01
2019-05-15T05:13:00.064Z,87.01
2019-05-15T05:14:00.080Z,87.01
2019-05-15T05:15:00.098Z,86.44
2019-05-15T05:16:00.110Z,86.44
2019-05-15T05:17:00.125Z,86.16
2019-05-15T05:18:00.140Z,86.25
2019-05-15T05:19:00.156Z,85.87
2019-05-15T05:20:00.170Z,86.01
2019-05-15T05:21:00.186Z,86.16
2019-05-15T05:22:00.200Z,85.91
2019-05-15T05:23:00.219Z,85.06
2019-05-15T05:24:00.232Z,85.53
2019-05-15T05:25:00.247Z,85.35
2019-05-15T05:26:00.261Z,84.87
2019-05-15T05:27:00.280Z,84.97
2019-05-15T05:28:00.293Z,85.16
2019-05-15T05:29:01.339Z,84.87
2019-05-15T05:30:00.325Z,84.78
2019-05-15T05:31:00.341Z,84.49
2019-05-15T05:32:00.357Z,84.78
2019-05-15T05:33:00.372Z,84.30
2019-05-15T05:34:00.390Z,84.11
2019-05-15T05:35:00.412Z,84.01
2019-05-15T05:36:00.421Z,84.40
2019-05-15T05:37:00.436Z,84.16
2019-05-15T05:38:00.455Z,83.87
2019-05-15T05:39:00.466Z,83.68
2019-05-15T05:40:00.487Z,83.78
2019-05-15T05:41:00.501Z,84.06
2019-05-15T05:42:00.516Z,83.39
2019-05-15T05:43:00.533Z,83.30
2019-05-15T05:44:00.549Z,83.11
2019-05-15T05:45:00.566Z,82.92
2019-05-15T05:46:00.581Z,82.54
2019-05-15T05:47:00.598Z,82.92
2019-05-15T05:48:00.611Z,82.64
2019-05-15T05:49:00.631Z,83.01
2019-05-15T05:50:00.658Z,82.82
2019-05-15T05:51:00.667Z,82.45
2019-05-15T05:52:00.678Z,82.16
2019-05-15T05:53:00.695Z,82.16
2019-05-15T05:54:00.712Z,81.97
2019-05-15T05:55:00.736Z,82.29
2019-05-15T05:56:00.743Z,82.01
2019-05-15T05:57:00.762Z,82.20
2019-05-15T05:58:00.780Z,81.63
2019-05-15T05:59:00.797Z,81.82
2019-05-15T06:00:00.813Z,81.06
2019-05-15T06:01:00.830Z,81.25
2019-05-15T06:02:00.848Z,81.06
2019-05-15T06:03:00.862Z,81.16
2019-05-15T06:04:00.881Z,79.73
2019-05-15T06:05:00.897Z,79.92
2019-05-15T06:06:00.914Z,79.39
2019-05-15T06:07:06.998Z,79.77
2019-05-15T06:08:00.952Z,79.30
2019-05-15T06:09:00.966Z,78.82
2019-05-15T06:10:00.982Z,79.49
2019-05-15T06:11:01.000Z,78.82
2019-05-15T06:12:01.017Z,78.25
2019-05-15T06:13:01.036Z,77.97
2019-05-15T06:14:01.051Z,77.39
2019-05-15T06:15:01.069Z,77.58
2019-05-15T06:16:01.087Z,77.58
2019-05-15T06:17:01.105Z,77.30
2019-05-15T06:18:01.121Z,76.82
2019-05-15T06:19:01.141Z,76.06
2019-05-15T06:20:01.159Z,76.06
2019-05-15T06:21:01.174Z,76.44
2019-05-15T06:22:01.297Z,76.16
2019-05-15T06:23:01.208Z,75.96
2019-05-15T06:24:04.829Z,76.25
2019-05-15T06:25:04.883Z,76.16
2019-05-15T06:26:01.260Z,75.49
2019-05-15T06:27:01.280Z,75.30
2019-05-15T06:28:01.297Z,75.62
2019-05-15T06:29:01.313Z,75.53
2019-05-15T06:30:01.330Z,75.15
2019-05-15T06:31:01.354Z,74.67
2019-05-15T06:32:01.365Z,74.87
2019-05-15T06:33:09.142Z,74.77
2019-05-15T06:34:01.402Z,75.34
2019-05-15T06:35:01.438Z,75.53
2019-05-15T06:36:01.443Z,75.81
2019-05-15T06:37:01.455Z,75.34
2019-05-15T06:38:01.473Z,75.34
2019-05-15T06:39:01.489Z,74.67
2019-05-15T06:40:01.509Z,74.77
2019-05-15T06:41:01.528Z,74.52
2019-05-15T06:42:01.544Z,74.43
2019-05-15T06:43:01.563Z,73.95
2019-05-15T06:44:01.579Z,73.76
2019-05-15T06:45:01.601Z,73.66
2019-05-15T06:46:01.615Z,73.76
2019-05-15T06:47:01.636Z,73.10
2019-05-15T06:48:01.674Z,73.22
2019-05-15T06:49:01.674Z,73.32
2019-05-15T06:50:01.693Z,73.13
2019-05-15T06:51:01.711Z,73.45
2019-05-15T06:52:01.729Z,72.69
2019-05-15T06:53:01.750Z,72.21
2019-05-15T06:54:01.776Z,71.39
2019-05-15T06:55:01.858Z,71.30
2019-05-15T06:56:01.852Z,70.28
2019-05-15T06:57:01.862Z,68.95
2019-05-15T06:58:01.943Z,67.93
2019-05-15T06:59:01.919Z,66.60
2019-05-15T07:00:01.926Z,66.02
2019-05-15T07:01:01.915Z,66.35
2019-05-15T07:02:01.937Z,66.06
2019-05-15T07:03:16.494Z,64.85
2019-05-15T07:04:01.981Z,63.60
2019-05-15T07:05:02.004Z,62.65
2019-05-15T07:06:02.024Z,62.18
2019-05-15T07:07:02.054Z,61.82
2019-05-15T07:08:02.070Z,61.63
2019-05-15T07:09:02.093Z,61.19
2019-05-15T07:10:02.117Z,60.33
2019-05-15T07:11:02.141Z,59.84
2019-05-15T07:12:02.163Z,59.27
2019-05-15T07:13:02.185Z,59.08
2019-05-15T07:14:02.209Z,59.01
2019-05-15T07:15:02.234Z,58.92
2019-05-15T07:16:02.290Z,59.30
2019-05-15T07:17:02.284Z,58.06
2019-05-15T07:18:02.303Z,57.97
2019-05-15T07:19:02.326Z,58.34
2019-05-15T07:20:02.351Z,57.87
2019-05-15T07:21:02.376Z,57.87
2019-05-15T07:22:02.400Z,57.87
2019-05-15T07:23:02.419Z,58.15
2019-05-15T07:24:02.445Z,57.99
2019-05-15T07:25:02.469Z,57.99
2019-05-15T07:26:02.492Z,57.90
2019-05-15T07:27:02.521Z,58.28
2019-05-15T07:28:02.548Z,57.90
2019-05-15T07:29:02.582Z,57.13
2019-05-15T07:30:02.592Z,56.20
2019-05-15T07:31:02.610Z,56.30
2019-05-15T07:32:02.633Z,56.49
2019-05-15T07:33:02.661Z,56.49
2019-05-15T07:34:02.683Z,56.39
2019-05-15T07:35:02.705Z,55.82
2019-05-15T07:36:02.728Z,54.57
2019-05-15T07:37:02.753Z,54.77
2019-05-15T07:38:02.779Z,55.27
2019-05-15T07:39:02.802Z,55.46
2019-05-15T07:40:02.827Z,54.79
2019-05-15T07:41:04.399Z,54.32
2019-05-15T07:42:02.876Z,54.22
2019-05-15T07:43:02.903Z,54.63
2019-05-15T07:44:02.926Z,54.44
2019-05-15T07:45:02.952Z,52.91
2019-05-15T07:46:02.978Z,52.23
2019-05-15T07:47:03.005Z,52.23
2019-05-15T07:48:03.027Z,52.71
2019-05-15T07:49:03.058Z,52.40
2019-05-15T07:50:03.079Z,53.19
2019-05-15T07:51:03.104Z,52.91
2019-05-15T07:52:03.131Z,53.26
2019-05-15T07:53:03.156Z,53.36
2019-05-15T07:54:03.180Z,53.26
2019-05-15T07:55:03.204Z,53.45
2019-05-15T07:56:03.232Z,54.22
2019-05-15T07:57:03.255Z,54.03
2019-05-15T07:58:03.278Z,53.04
2019-05-15T07:59:03.303Z,51.03
2019-05-15T08:00:03.324Z,49.69
2019-05-15T08:01:05.362Z,50.05
2019-05-15T08:02:03.370Z,50.43
2019-05-15T08:03:03.394Z,50.72
2019-05-15T08:04:22.696Z,50.70
2019-05-15T08:05:03.440Z,50.02
2019-05-15T08:06:03.471Z,50.02
2019-05-15T08:07:03.484Z,50.70
2019-05-15T08:08:03.521Z,49.84
2019-05-15T08:09:03.535Z,49.64
2019-05-15T08:10:03.549Z,49.07
2019-05-15T08:11:16.152Z,48.68
2019-05-15T08:12:03.602Z,48.39
2019-05-15T08:13:03.617Z,48.78
2019-05-15T08:14:03.799Z,49.16
2019-05-15T08:15:03.666Z,49.07
2019-05-15T08:16:03.749Z,48.80
2019-05-15T08:17:03.759Z,48.90
2019-05-15T08:18:09.034Z,48.90
2019-05-15T08:19:03.828Z,48.71
2019-05-15T08:20:03.825Z,48.80
2019-05-15T08:21:03.815Z,48.23
2019-05-15T08:22:03.821Z,48.23
2019-05-15T08:23:03.841Z,48.80
2019-05-15T08:24:03.866Z,49.29
2019-05-15T08:25:06.747Z,49.48
2019-05-15T08:26:03.911Z,49.66
2019-05-15T08:27:03.932Z,50.05
2019-05-15T08:28:03.955Z,49.57
2019-05-15T08:29:03.978Z,48.80
2019-05-15T08:30:04.000Z,49.11
2019-05-15T08:31:06.549Z,48.83
2019-05-15T08:32:04.063Z,49.21
2019-05-15T08:33:04.089Z,49.21
2019-05-15T08:34:13.644Z,49.40
2019-05-15T08:35:04.118Z,49.50
2019-05-15T08:36:04.143Z,49.31
2019-05-15T08:37:04.162Z,48.54
2019-05-15T08:38:04.184Z,48.25
2019-05-15T08:39:04.213Z,47.97
2019-05-15T08:40:04.230Z,48.64
2019-05-15T08:41:04.258Z,48.73
2019-05-15T08:42:04.274Z,48.54
2019-05-15T08:43:04.302Z,48.93
2019-05-15T08:44:04.319Z,47.97
2019-05-15T08:45:04.345Z,47.87
2019-05-15T08:46:04.366Z,47.97
2019-05-15T08:47:04.389Z,47.87
2019-05-15T08:48:04.413Z,48.93
2019-05-15T08:49:04.437Z,48.83
2019-05-15T08:50:04.458Z,49.02
2019-05-15T08:51:04.481Z,48.83
2019-05-15T08:52:07.188Z,48.44
2019-05-15T08:53:04.526Z,48.83
2019-05-15T08:54:04.550Z,48.95
2019-05-15T08:55:04.571Z,49.14
2019-05-15T08:56:04.596Z,48.73
2019-05-15T08:57:04.622Z,48.85
2019-05-15T08:58:08.071Z,48.85
2019-05-15T08:59:04.663Z,48.95
2019-05-15T09:00:04.686Z,48.85
2019-05-15T09:01:04.709Z,48.28
2019-05-15T09:02:04.731Z,48.66
2019-05-15T09:03:04.756Z,48.57
2019-05-15T09:04:04.777Z,48.09
2019-05-15T09:05:04.802Z,47.71
2019-05-15T09:06:04.824Z,47.80
2019-05-15T09:07:04.846Z,47.80
2019-05-15T09:08:04.872Z,47.32
2019-05-15T09:09:04.894Z,47.51
2019-05-15T09:10:04.917Z,47.51
2019-05-15T09:11:04.939Z,47.42
2019-05-15T09:12:04.965Z,47.32
2019-05-15T09:13:04.994Z,47.22
2019-05-15T09:14:05.019Z,47.99
2019-05-15T09:15:05.034Z,48.09
2019-05-15T09:16:05.056Z,48.66
2019-05-15T09:17:05.080Z,47.99
2019-05-15T09:18:14.739Z,47.80
2019-05-15T09:19:05.135Z,47.71
2019-05-15T09:20:05.149Z,47.71
2019-05-15T09:21:05.178Z,47.51
2019-05-15T09:22:05.193Z,47.71
2019-05-15T09:23:05.221Z,47.73
2019-05-15T09:24:05.242Z,47.44
2019-05-15T09:25:05.264Z,47.15
2019-05-15T09:26:05.288Z,47.06
2019-05-15T09:27:05.312Z,46.96
2019-05-15T09:28:05.335Z,46.67
2019-05-15T09:29:05.360Z,46.67
2019-05-15T09:30:05.384Z,46.86
2019-05-15T09:31:05.406Z,46.60
2019-05-15T09:32:05.433Z,46.50
2019-05-15T09:33:05.459Z,46.50
2019-05-15T09:34:05.480Z,46.89
2019-05-15T09:35:05.504Z,46.89
2019-05-15T09:36:05.528Z,47.20
2019-05-15T09:37:05.557Z,46.91
2019-05-15T09:38:05.653Z,46.34
2019-05-15T09:39:05.651Z,45.86
2019-05-15T09:40:05.654Z,45.86
2019-05-15T09:41:05.740Z,46.62
2019-05-15T09:42:05.714Z,46.53
2019-05-15T09:43:05.715Z,46.72
2019-05-15T09:44:07.871Z,47.01
2019-05-15T09:45:05.750Z,46.53
2019-05-15T09:46:07.573Z,46.24
2019-05-15T09:47:05.800Z,46.62
2019-05-15T09:48:09.477Z,47.01
2019-05-15T09:49:08.576Z,46.74
2019-05-15T09:50:08.365Z,46.45
2019-05-15T09:51:05.905Z,46.55
2019-05-15T09:52:05.929Z,46.55
2019-05-15T09:53:05.957Z,46.65
2019-05-15T09:54:07.956Z,47.92
2019-05-15T09:55:08.377Z,47.25
2019-05-15T09:56:08.039Z,46.96
2019-05-15T09:57:06.058Z,46.58
2019-05-15T09:58:08.095Z,47.25
2019-05-15T09:59:08.395Z,46.79
2019-05-15T10:00:08.833Z,46.59
2019-05-15T10:01:08.168Z,45.92
2019-05-15T10:02:06.196Z,45.35
2019-05-15T10:03:06.217Z,45.35
2019-05-15T10:04:08.159Z,45.25
2019-05-15T10:05:10.555Z,44.77
2019-05-15T10:06:08.156Z,44.96
2019-05-15T10:07:08.147Z,46.02
2019-05-15T10:08:08.447Z,46.89
2019-05-15T10:09:08.865Z,46.79
2019-05-15T10:10:08.548Z,46.59
2019-05-15T10:11:08.877Z,46.98
2019-05-15T10:12:08.358Z,46.59
2019-05-15T10:13:08.809Z,46.59
2019-05-15T10:14:06.492Z,46.69
2019-05-15T10:15:10.945Z,46.00
2019-05-15T10:16:08.295Z,45.83
2019-05-15T10:17:08.802Z,46.09
2019-05-15T10:18:09.737Z,46.00
2019-05-15T10:19:08.808Z,46.00
2019-05-15T10:20:08.930Z,46.48
2019-05-15T10:21:08.740Z,46.58
2019-05-15T10:22:09.515Z,46.86
2019-05-15T10:23:08.823Z,46.58
2019-05-15T10:24:09.307Z,45.61
2019-05-15T10:25:08.381Z,45.61
2019-05-15T10:26:13.250Z,46.09
2019-05-15T10:27:08.771Z,46.19
2019-05-15T10:28:06.846Z,46.28
2019-05-15T10:29:09.040Z,46.38
2019-05-15T10:30:09.011Z,46.38
2019-05-15T10:31:09.218Z,46.86
2019-05-15T10:32:08.614Z,46.89
2019-05-15T10:33:08.549Z,46.48
2019-05-15T10:34:09.044Z,46.19
2019-05-15T10:35:24.013Z,45.90
2019-05-15T10:36:08.328Z,46.12
2019-05-15T10:37:08.386Z,46.59
2019-05-15T10:38:08.884Z,46.89
2019-05-15T10:39:08.393Z,46.02
2019-05-15T10:40:09.084Z,45.83
2019-05-15T10:41:11.252Z,45.83
2019-05-15T10:42:08.245Z,46.09
2019-05-15T10:43:09.020Z,46.28
2019-05-15T10:44:09.178Z,45.90
2019-05-15T10:45:08.328Z,46.00
2019-05-15T10:46:12.375Z,46.58
2019-05-15T10:47:08.848Z,46.67
2019-05-15T10:48:09.346Z,46.86
2019-05-15T10:49:08.606Z,46.94
2019-05-15T10:50:08.009Z,47.13
2019-05-15T10:51:10.284Z,47.51
2019-05-15T10:52:08.757Z,47.39
2019-05-15T10:53:10.973Z,47.68
2019-05-15T10:54:08.527Z,47.87
2019-05-15T10:55:09.182Z,47.77
2019-05-15T10:56:08.971Z,48.16
2019-05-15T10:57:08.636Z,48.54
2019-05-15T10:58:16.610Z,48.25
2019-05-15T10:59:08.535Z,48.35
2019-05-15T11:00:07.957Z,48.83
2019-05-15T11:01:10.973Z,48.90
2019-05-15T11:02:08.626Z,49.00
2019-05-15T11:03:08.909Z,49.29
2019-05-15T11:04:09.227Z,49.57
2019-05-15T11:05:09.450Z,49.67
2019-05-15T11:06:09.036Z,49.76
2019-05-15T11:07:09.674Z,50.15
2019-05-15T11:08:08.363Z,49.96
2019-05-15T11:09:08.530Z,50.34
2019-05-15T11:10:08.584Z,50.43
2019-05-15T11:11:09.136Z,50.82
2019-05-15T11:12:08.726Z,50.73
2019-05-15T11:13:09.015Z,50.43
2019-05-15T11:14:09.154Z,50.82
2019-05-15T11:15:11.005Z,50.73
2019-05-15T11:16:07.990Z,50.63
2019-05-15T11:17:08.018Z,50.43
2019-05-15T11:18:09.321Z,50.53
2019-05-15T11:19:08.144Z,50.73
2019-05-15T11:20:08.523Z,50.82
2019-05-15T11:21:08.374Z,50.43
2019-05-15T11:22:09.107Z,50.92
2019-05-15T11:23:08.221Z,50.84
2019-05-15T11:24:08.729Z,50.73
2019-05-15T11:25:09.758Z,49.96
2019-05-15T11:26:08.762Z,49.69
2019-05-15T11:27:09.957Z,49.79
2019-05-15T11:28:08.363Z,50.17
2019-05-15T11:29:09.664Z,49.57
2019-05-15T11:30:08.316Z,49.57
2019-05-15T11:31:10.449Z,49.67
2019-05-15T11:32:08.885Z,49.38
2019-05-15T11:33:09.532Z,49.67
2019-05-15T11:34:09.337Z,49.86
2019-05-15T11:35:08.459Z,50.05
2019-05-15T11:36:08.457Z,50.15
2019-05-15T11:37:08.481Z,50.24
2019-05-15T11:38:10.028Z,49.57
2019-05-15T11:39:08.575Z,49.76
2019-05-15T11:40:10.050Z,49.67
2019-05-15T11:41:08.833Z,49.55
2019-05-15T11:42:08.990Z,49.26
2019-05-15T11:43:08.715Z,49.26
2019-05-15T11:44:08.637Z,49.26
2019-05-15T11:45:08.661Z,49.45
2019-05-15T11:46:09.910Z,49.45
2019-05-15T11:47:08.705Z,49.36
2019-05-15T11:48:09.041Z,49.65
2019-05-15T11:49:09.381Z,49.16
2019-05-15T11:50:08.775Z,49.16
2019-05-15T11:51:09.574Z,49.65
2019-05-15T11:52:08.882Z,49.76
2019-05-15T11:53:09.006Z,50.05
2019-05-15T11:54:08.870Z,50.82
2019-05-15T11:55:08.892Z,51.20
2019-05-15T11:56:09.470Z,50.73
2019-05-15T11:57:08.933Z,50.24
2019-05-15T11:58:09.342Z,49.86
2019-05-15T11:59:08.980Z,49.48
2019-05-15T12:00:15.068Z,49.41
2019-05-15T12:01:09.036Z,49.41
2019-05-15T12:02:09.047Z,48.93
2019-05-15T12:03:09.173Z,48.93
2019-05-15T12:04:09.418Z,48.25
2019-05-15T12:05:09.374Z,47.87
2019-05-15T12:06:18.610Z,47.97
2019-05-15T12:07:09.166Z,47.77
2019-05-15T12:08:12.359Z,47.39
2019-05-15T12:09:09.506Z,47.87
2019-05-15T12:10:10.544Z,47.87
2019-05-15T12:11:11.994Z,47.87
2019-05-15T12:12:09.284Z,47.77
2019-05-15T12:13:09.967Z,47.68
2019-05-15T12:14:09.331Z,47.77
2019-05-15T12:15:09.363Z,48.07
2019-05-15T12:16:09.476Z,47.77
2019-05-15T12:17:14.922Z,47.49
2019-05-15T12:18:09.460Z,47.49
2019-05-15T12:19:13.570Z,47.68
2019-05-15T12:20:10.748Z,47.77
2019-05-15T12:21:09.525Z,48.16
2019-05-15T12:22:09.525Z,47.77
2019-05-15T12:23:09.541Z,48.07
2019-05-15T12:24:09.563Z,47.87
2019-05-15T12:25:10.146Z,47.75
2019-05-15T12:26:09.609Z,47.85
2019-05-15T12:27:15.304Z,48.16
2019-05-15T12:28:09.860Z,48.35
2019-05-15T12:29:10.048Z,48.35
2019-05-15T12:30:10.214Z,48.35
2019-05-15T12:31:09.725Z,48.33
2019-05-15T12:32:23.426Z,48.80
2019-05-15T12:33:09.987Z,48.43
2019-05-15T12:34:09.840Z,48.71
2019-05-15T12:35:09.820Z,48.61
2019-05-15T12:36:10.989Z,48.33
2019-05-15T12:37:10.083Z,48.33
2019-05-15T12:38:10.349Z,48.33
2019-05-15T12:39:13.535Z,48.61
2019-05-15T13:00:10.674Z,47.87
2019-05-15T13:01:16.953Z,47.97
2019-05-15T13:02:10.435Z,48.35
2019-05-15T13:03:10.459Z,48.25
2019-05-15T13:04:10.483Z,48.35
2019-05-15T13:05:10.504Z,48.74
2019-05-15T13:06:10.543Z,48.35
2019-05-15T13:07:16.333Z,47.77
2019-05-15T13:08:10.572Z,47.77
2019-05-15T13:09:10.592Z,47.49
2019-05-15T13:10:10.615Z,47.77
2019-05-15T13:11:14.996Z,47.77
2019-05-15T13:12:10.666Z,47.87
2019-05-15T13:13:10.686Z,48.16
2019-05-15T13:14:10.709Z,47.58